sensor_id;sensor_type;location;lat;lon;timestamp;P1;durP1;ratioP1;P2;durP2;ratioP2
70505;SDS011;58032;49.820;6.274;2022-07-29T00:02:03;3.63;;;1.40;;
70505;SDS011;58032;49.820;6.274;2022-07-29T00:04:30;4.20;;;1.50;;
70505;SDS011;58032;49.820;6.274;2022-07-29T00:06:57;4.90;;;1.30;;
70505;SDS011;58032;49.820;6.274;2022-07-29T00:09:24;4.32;;;1.40;;
70505;SDS011;58032;49.820;6.274;2022-07-29T00:11:51;7.22;;;1.58;;
70505;SDS011;58032;49.820;6.274;2022-07-29T00:14:18;4.00;;;1.67;;
70505;SDS011;58032;49.820;6.274;2022-07-29T00:16:46;5.35;;;1.40;;
70505;SDS011;58032;49.820;6.274;2022-07-29T00:19:13;5.63;;;1.40;;
70505;SDS011;58032;49.820;6.274;2022-07-29T00:21:40;5.45;;;1.60;;
70505;SDS011;58032;49.820;6.274;2022-07-29T00:24:07;3.25;;;1.40;;
70505;SDS011;58032;49.820;6.274;2022-07-29T00:26:34;3.67;;;1.40;;
70505;SDS011;58032;49.820;6.274;2022-07-29T00:29:03;4.75;;;1.35;;
70505;SDS011;58032;49.820;6.274;2022-07-29T00:31:50;6.28;;;1.40;;
70505;SDS011;58032;49.820;6.274;2022-07-29T00:34:17;4.50;;;1.27;;
70505;SDS011;58032;49.820;6.274;2022-07-29T00:37:03;5.05;;;1.55;;
70505;SDS011;58032;49.820;6.274;2022-07-29T00:39:30;11.30;;;1.37;;
70505;SDS011;58032;49.820;6.274;2022-07-29T00:41:57;7.45;;;1.40;;
70505;SDS011;58032;49.820;6.274;2022-07-29T00:44:24;3.40;;;1.35;;
70505;SDS011;58032;49.820;6.274;2022-07-29T00:46:52;8.32;;;1.50;;
70505;SDS011;58032;49.820;6.274;2022-07-29T00:49:19;3.80;;;1.33;;
70505;SDS011;58032;49.820;6.274;2022-07-29T00:51:46;3.30;;;1.53;;
70505;SDS011;58032;49.820;6.274;2022-07-29T00:54:14;4.22;;;1.35;;
70505;SDS011;58032;49.820;6.274;2022-07-29T00:56:42;3.85;;;1.42;;
70505;SDS011;58032;49.820;6.274;2022-07-29T00:59:09;5.07;;;1.58;;
70505;SDS011;58032;49.820;6.274;2022-07-29T01:01:36;3.90;;;1.70;;
70505;SDS011;58032;49.820;6.274;2022-07-29T01:04:03;3.83;;;1.37;;
70505;SDS011;58032;49.820;6.274;2022-07-29T01:06:33;3.10;;;1.45;;
70505;SDS011;58032;49.820;6.274;2022-07-29T01:09:00;3.00;;;1.27;;
70505;SDS011;58032;49.820;6.274;2022-07-29T01:11:29;4.75;;;1.45;;
70505;SDS011;58032;49.820;6.274;2022-07-29T01:13:56;5.90;;;1.40;;
70505;SDS011;58032;49.820;6.274;2022-07-29T01:16:33;5.70;;;1.40;;
70505;SDS011;58032;49.820;6.274;2022-07-29T01:25:19;5.55;;;1.40;;
70505;SDS011;58032;49.820;6.274;2022-07-29T01:30:47;5.10;;;1.60;;
70505;SDS011;58032;49.820;6.274;2022-07-29T01:33:18;5.28;;;1.58;;
70505;SDS011;58032;49.820;6.274;2022-07-29T01:36:10;3.50;;;1.40;;
70505;SDS011;58032;49.820;6.274;2022-07-29T01:38:41;3.03;;;1.20;;
70505;SDS011;58032;49.820;6.274;2022-07-29T01:41:15;3.53;;;1.35;;
70505;SDS011;58032;49.820;6.274;2022-07-29T01:43:44;5.07;;;1.40;;
70505;SDS011;58032;49.820;6.274;2022-07-29T01:46:20;4.45;;;1.60;;
70505;SDS011;58032;49.820;6.274;2022-07-29T01:48:56;3.83;;;1.33;;
70505;SDS011;58032;49.820;6.274;2022-07-29T01:51:32;3.28;;;1.30;;
70505;SDS011;58032;49.820;6.274;2022-07-29T01:57:04;4.33;;;1.33;;
70505;SDS011;58032;49.820;6.274;2022-07-29T01:59:34;6.05;;;1.60;;
70505;SDS011;58032;49.820;6.274;2022-07-29T02:02:03;3.20;;;1.25;;
70505;SDS011;58032;49.820;6.274;2022-07-29T02:04:32;3.75;;;1.80;;
70505;SDS011;58032;49.820;6.274;2022-07-29T02:07:03;4.30;;;1.60;;
70505;SDS011;58032;49.820;6.274;2022-07-29T02:09:33;5.13;;;1.53;;
70505;SDS011;58032;49.820;6.274;2022-07-29T02:12:02;4.80;;;1.80;;
70505;SDS011;58032;49.820;6.274;2022-07-29T02:14:40;4.38;;;1.58;;
70505;SDS011;58032;49.820;6.274;2022-07-29T02:17:21;3.97;;;1.40;;
70505;SDS011;58032;49.820;6.274;2022-07-29T02:19:52;6.70;;;1.70;;
70505;SDS011;58032;49.820;6.274;2022-07-29T02:22:25;3.53;;;1.67;;
70505;SDS011;58032;49.820;6.274;2022-07-29T02:24:55;5.93;;;1.95;;
70505;SDS011;58032;49.820;6.274;2022-07-29T02:27:24;4.53;;;1.50;;
70505;SDS011;58032;49.820;6.274;2022-07-29T02:29:54;3.70;;;1.42;;
70505;SDS011;58032;49.820;6.274;2022-07-29T02:32:26;3.92;;;1.60;;
70505;SDS011;58032;49.820;6.274;2022-07-29T02:34:56;3.57;;;1.20;;
70505;SDS011;58032;49.820;6.274;2022-07-29T02:37:23;4.22;;;1.38;;
70505;SDS011;58032;49.820;6.274;2022-07-29T02:39:52;3.72;;;1.50;;
70505;SDS011;58032;49.820;6.274;2022-07-29T02:42:21;2.95;;;1.40;;
70505;SDS011;58032;49.820;6.274;2022-07-29T02:44:50;5.10;;;2.08;;
70505;SDS011;58032;49.820;6.274;2022-07-29T02:47:40;4.45;;;1.50;;
70505;SDS011;58032;49.820;6.274;2022-07-29T02:50:11;6.03;;;1.75;;
70505;SDS011;58032;49.820;6.274;2022-07-29T02:52:45;4.57;;;1.52;;
70505;SDS011;58032;49.820;6.274;2022-07-29T02:55:25;4.30;;;1.60;;
70505;SDS011;58032;49.820;6.274;2022-07-29T03:00:31;6.10;;;1.60;;
70505;SDS011;58032;49.820;6.274;2022-07-29T03:03:03;3.53;;;1.45;;
70505;SDS011;58032;49.820;6.274;2022-07-29T03:05:34;4.35;;;1.88;;
70505;SDS011;58032;49.820;6.274;2022-07-29T03:08:02;6.40;;;1.88;;
70505;SDS011;58032;49.820;6.274;2022-07-29T03:10:32;5.97;;;1.60;;
70505;SDS011;58032;49.820;6.274;2022-07-29T03:13:00;3.60;;;1.60;;
70505;SDS011;58032;49.820;6.274;2022-07-29T03:15:28;5.63;;;1.50;;
70505;SDS011;58032;49.820;6.274;2022-07-29T03:17:56;3.30;;;1.40;;
70505;SDS011;58032;49.820;6.274;2022-07-29T03:20:23;5.95;;;2.90;;
70505;SDS011;58032;49.820;6.274;2022-07-29T03:22:51;6.13;;;2.67;;
70505;SDS011;58032;49.820;6.274;2022-07-29T03:25:18;3.17;;;1.60;;
70505;SDS011;58032;49.820;6.274;2022-07-29T03:27:47;3.08;;;1.50;;
70505;SDS011;58032;49.820;6.274;2022-07-29T03:30:14;5.47;;;1.48;;
70505;SDS011;58032;49.820;6.274;2022-07-29T03:32:42;4.15;;;1.45;;
70505;SDS011;58032;49.820;6.274;2022-07-29T03:35:09;5.88;;;1.63;;
70505;SDS011;58032;49.820;6.274;2022-07-29T03:37:36;6.90;;;2.27;;
70505;SDS011;58032;49.820;6.274;2022-07-29T03:40:05;4.78;;;1.70;;
70505;SDS011;58032;49.820;6.274;2022-07-29T03:42:36;8.20;;;1.70;;
70505;SDS011;58032;49.820;6.274;2022-07-29T03:45:07;3.53;;;1.58;;
70505;SDS011;58032;49.820;6.274;2022-07-29T03:47:40;4.28;;;1.60;;
70505;SDS011;58032;49.820;6.274;2022-07-29T03:50:12;4.63;;;1.57;;
70505;SDS011;58032;49.820;6.274;2022-07-29T03:52:41;5.45;;;1.70;;
70505;SDS011;58032;49.820;6.274;2022-07-29T03:55:09;5.93;;;1.85;;
70505;SDS011;58032;49.820;6.274;2022-07-29T03:57:36;4.30;;;2.03;;
70505;SDS011;58032;49.820;6.274;2022-07-29T04:00:06;4.63;;;1.85;;
70505;SDS011;58032;49.820;6.274;2022-07-29T04:02:35;4.30;;;1.80;;
70505;SDS011;58032;49.820;6.274;2022-07-29T04:05:03;4.10;;;1.58;;
70505;SDS011;58032;49.820;6.274;2022-07-29T04:07:30;4.38;;;1.80;;
70505;SDS011;58032;49.820;6.274;2022-07-29T04:09:57;4.53;;;2.03;;
70505;SDS011;58032;49.820;6.274;2022-07-29T04:12:24;5.70;;;1.90;;
70505;SDS011;58032;49.820;6.274;2022-07-29T04:14:51;3.90;;;1.60;;
70505;SDS011;58032;49.820;6.274;2022-07-29T04:17:18;3.20;;;1.65;;
70505;SDS011;58032;49.820;6.274;2022-07-29T04:19:45;5.93;;;1.73;;
70505;SDS011;58032;49.820;6.274;2022-07-29T04:22:12;6.68;;;2.03;;
70505;SDS011;58032;49.820;6.274;2022-07-29T04:24:39;4.35;;;1.60;;
70505;SDS011;58032;49.820;6.274;2022-07-29T04:27:08;3.93;;;1.53;;
70505;SDS011;58032;49.820;6.274;2022-07-29T04:29:35;3.38;;;1.65;;
70505;SDS011;58032;49.820;6.274;2022-07-29T04:32:02;4.03;;;1.58;;
70505;SDS011;58032;49.820;6.274;2022-07-29T04:34:29;6.35;;;1.52;;
70505;SDS011;58032;49.820;6.274;2022-07-29T04:36:56;6.03;;;1.65;;
70505;SDS011;58032;49.820;6.274;2022-07-29T04:39:23;3.70;;;1.40;;
70505;SDS011;58032;49.820;6.274;2022-07-29T04:41:51;3.78;;;1.50;;
70505;SDS011;58032;49.820;6.274;2022-07-29T04:44:18;4.70;;;1.50;;
70505;SDS011;58032;49.820;6.274;2022-07-29T04:46:45;4.00;;;1.30;;
70505;SDS011;58032;49.820;6.274;2022-07-29T04:49:12;5.13;;;1.75;;
70505;SDS011;58032;49.820;6.274;2022-07-29T04:51:39;3.00;;;1.30;;
70505;SDS011;58032;49.820;6.274;2022-07-29T04:54:06;4.75;;;1.70;;
70505;SDS011;58032;49.820;6.274;2022-07-29T04:56:34;9.43;;;2.88;;
70505;SDS011;58032;49.820;6.274;2022-07-29T04:59:01;6.25;;;3.05;;
70505;SDS011;58032;49.820;6.274;2022-07-29T05:01:28;3.65;;;1.67;;
70505;SDS011;58032;49.820;6.274;2022-07-29T05:03:55;3.17;;;1.60;;
70505;SDS011;58032;49.820;6.274;2022-07-29T05:06:25;3.40;;;1.67;;
70505;SDS011;58032;49.820;6.274;2022-07-29T05:08:52;6.22;;;2.00;;
70505;SDS011;58032;49.820;6.274;2022-07-29T05:11:19;6.30;;;1.83;;
70505;SDS011;58032;49.820;6.274;2022-07-29T05:13:47;4.60;;;1.73;;
70505;SDS011;58032;49.820;6.274;2022-07-29T05:16:14;15.13;;;2.50;;
70505;SDS011;58032;49.820;6.274;2022-07-29T05:18:41;5.68;;;2.25;;
70505;SDS011;58032;49.820;6.274;2022-07-29T05:21:08;4.40;;;1.95;;
70505;SDS011;58032;49.820;6.274;2022-07-29T05:23:35;4.88;;;2.25;;
70505;SDS011;58032;49.820;6.274;2022-07-29T05:26:02;10.95;;;4.78;;
70505;SDS011;58032;49.820;6.274;2022-07-29T05:28:32;4.80;;;2.23;;
70505;SDS011;58032;49.820;6.274;2022-07-29T05:31:00;6.20;;;1.80;;
70505;SDS011;58032;49.820;6.274;2022-07-29T05:33:27;5.85;;;1.95;;
70505;SDS011;58032;49.820;6.274;2022-07-29T05:35:54;5.78;;;2.00;;
70505;SDS011;58032;49.820;6.274;2022-07-29T05:38:24;7.00;;;1.88;;
70505;SDS011;58032;49.820;6.274;2022-07-29T05:40:51;3.53;;;1.83;;
70505;SDS011;58032;49.820;6.274;2022-07-29T05:43:18;7.13;;;2.13;;
70505;SDS011;58032;49.820;6.274;2022-07-29T05:45:44;6.78;;;2.30;;
70505;SDS011;58032;49.820;6.274;2022-07-29T05:48:11;4.28;;;2.08;;
70505;SDS011;58032;49.820;6.274;2022-07-29T05:50:38;4.43;;;2.13;;
70505;SDS011;58032;49.820;6.274;2022-07-29T05:53:05;4.30;;;2.00;;
70505;SDS011;58032;49.820;6.274;2022-07-29T05:55:32;5.03;;;2.28;;
70505;SDS011;58032;49.820;6.274;2022-07-29T05:57:59;3.42;;;1.77;;
70505;SDS011;58032;49.820;6.274;2022-07-29T06:00:26;3.38;;;1.80;;
70505;SDS011;58032;49.820;6.274;2022-07-29T06:02:55;3.30;;;1.88;;
70505;SDS011;58032;49.820;6.274;2022-07-29T06:05:23;3.77;;;2.00;;
70505;SDS011;58032;49.820;6.274;2022-07-29T06:07:50;4.18;;;1.98;;
70505;SDS011;58032;49.820;6.274;2022-07-29T06:10:17;4.95;;;1.80;;
70505;SDS011;58032;49.820;6.274;2022-07-29T06:12:45;4.95;;;1.60;;
70505;SDS011;58032;49.820;6.274;2022-07-29T06:15:12;8.05;;;1.70;;
70505;SDS011;58032;49.820;6.274;2022-07-29T06:17:39;3.47;;;1.57;;
70505;SDS011;58032;49.820;6.274;2022-07-29T06:20:06;6.47;;;1.63;;
70505;SDS011;58032;49.820;6.274;2022-07-29T06:22:36;4.55;;;1.63;;
70505;SDS011;58032;49.820;6.274;2022-07-29T06:25:03;3.50;;;1.15;;
70505;SDS011;58032;49.820;6.274;2022-07-29T06:27:30;4.85;;;1.40;;
70505;SDS011;58032;49.820;6.274;2022-07-29T06:29:57;4.73;;;1.70;;
70505;SDS011;58032;49.820;6.274;2022-07-29T06:32:24;8.93;;;1.70;;
70505;SDS011;58032;49.820;6.274;2022-07-29T06:34:51;4.60;;;2.05;;
70505;SDS011;58032;49.820;6.274;2022-07-29T06:37:19;3.47;;;1.48;;
70505;SDS011;58032;49.820;6.274;2022-07-29T06:39:46;5.00;;;2.05;;
70505;SDS011;58032;49.820;6.274;2022-07-29T06:42:13;4.10;;;1.53;;
70505;SDS011;58032;49.820;6.274;2022-07-29T06:44:40;4.90;;;1.60;;
70505;SDS011;58032;49.820;6.274;2022-07-29T06:47:08;4.63;;;1.60;;
70505;SDS011;58032;49.820;6.274;2022-07-29T06:49:35;5.57;;;1.88;;
70505;SDS011;58032;49.820;6.274;2022-07-29T06:52:02;4.70;;;1.48;;
70505;SDS011;58032;49.820;6.274;2022-07-29T06:54:30;3.60;;;1.73;;
70505;SDS011;58032;49.820;6.274;2022-07-29T06:56:57;6.03;;;2.00;;
70505;SDS011;58032;49.820;6.274;2022-07-29T06:59:25;3.55;;;1.65;;
70505;SDS011;58032;49.820;6.274;2022-07-29T07:01:57;4.88;;;1.88;;
70505;SDS011;58032;49.820;6.274;2022-07-29T07:04:24;6.40;;;1.90;;
70505;SDS011;58032;49.820;6.274;2022-07-29T07:06:51;4.83;;;1.73;;
70505;SDS011;58032;49.820;6.274;2022-07-29T07:09:18;4.13;;;1.73;;
70505;SDS011;58032;49.820;6.274;2022-07-29T07:11:45;4.97;;;1.98;;
70505;SDS011;58032;49.820;6.274;2022-07-29T07:14:12;6.22;;;2.13;;
70505;SDS011;58032;49.820;6.274;2022-07-29T07:16:39;5.63;;;1.95;;
70505;SDS011;58032;49.820;6.274;2022-07-29T07:19:07;6.83;;;1.90;;
70505;SDS011;58032;49.820;6.274;2022-07-29T07:21:37;4.80;;;1.88;;
70505;SDS011;58032;49.820;6.274;2022-07-29T07:24:04;5.68;;;2.00;;
70505;SDS011;58032;49.820;6.274;2022-07-29T07:26:31;6.68;;;1.80;;
70505;SDS011;58032;49.820;6.274;2022-07-29T07:28:58;4.15;;;2.13;;
70505;SDS011;58032;49.820;6.274;2022-07-29T07:31:26;3.77;;;1.77;;
70505;SDS011;58032;49.820;6.274;2022-07-29T07:33:53;5.90;;;2.08;;
70505;SDS011;58032;49.820;6.274;2022-07-29T07:36:21;4.95;;;2.10;;
70505;SDS011;58032;49.820;6.274;2022-07-29T07:38:48;3.45;;;1.75;;
70505;SDS011;58032;49.820;6.274;2022-07-29T07:41:16;5.45;;;1.83;;
70505;SDS011;58032;49.820;6.274;2022-07-29T07:43:43;7.17;;;1.87;;
70505;SDS011;58032;49.820;6.274;2022-07-29T07:46:10;5.65;;;2.22;;
70505;SDS011;58032;49.820;6.274;2022-07-29T07:48:37;3.67;;;1.70;;
70505;SDS011;58032;49.820;6.274;2022-07-29T07:51:04;5.47;;;2.17;;
70505;SDS011;58032;49.820;6.274;2022-07-29T07:53:31;5.13;;;1.90;;
70505;SDS011;58032;49.820;6.274;2022-07-29T07:55:58;4.70;;;2.10;;
70505;SDS011;58032;49.820;6.274;2022-07-29T07:58:41;4.95;;;1.88;;
70505;SDS011;58032;49.820;6.274;2022-07-29T08:01:08;6.78;;;2.10;;
70505;SDS011;58032;49.820;6.274;2022-07-29T08:03:36;4.07;;;2.00;;
70505;SDS011;58032;49.820;6.274;2022-07-29T08:06:03;4.78;;;2.10;;
70505;SDS011;58032;49.820;6.274;2022-07-29T08:08:31;5.67;;;2.10;;
70505;SDS011;58032;49.820;6.274;2022-07-29T08:10:58;6.22;;;2.30;;
70505;SDS011;58032;49.820;6.274;2022-07-29T08:13:26;5.47;;;2.20;;
70505;SDS011;58032;49.820;6.274;2022-07-29T08:15:55;4.47;;;2.15;;
70505;SDS011;58032;49.820;6.274;2022-07-29T08:18:38;4.85;;;2.30;;
70505;SDS011;58032;49.820;6.274;2022-07-29T08:21:07;6.10;;;2.47;;
70505;SDS011;58032;49.820;6.274;2022-07-29T08:23:34;5.25;;;2.28;;
70505;SDS011;58032;49.820;6.274;2022-07-29T08:26:15;6.77;;;2.40;;
70505;SDS011;58032;49.820;6.274;2022-07-29T08:28:43;6.40;;;2.17;;
70505;SDS011;58032;49.820;6.274;2022-07-29T08:31:16;5.95;;;2.40;;
70505;SDS011;58032;49.820;6.274;2022-07-29T08:33:43;6.95;;;2.20;;
70505;SDS011;58032;49.820;6.274;2022-07-29T08:36:10;5.00;;;2.33;;
70505;SDS011;58032;49.820;6.274;2022-07-29T08:38:39;6.30;;;2.20;;
70505;SDS011;58032;49.820;6.274;2022-07-29T08:41:06;4.68;;;2.38;;
70505;SDS011;58032;49.820;6.274;2022-07-29T08:43:33;6.20;;;2.15;;
70505;SDS011;58032;49.820;6.274;2022-07-29T08:46:03;5.70;;;2.38;;
70505;SDS011;58032;49.820;6.274;2022-07-29T08:48:30;4.55;;;2.60;;
70505;SDS011;58032;49.820;6.274;2022-07-29T08:50:59;4.63;;;2.47;;
70505;SDS011;58032;49.820;6.274;2022-07-29T08:53:27;5.15;;;2.40;;
70505;SDS011;58032;49.820;6.274;2022-07-29T08:55:55;4.28;;;2.33;;
70505;SDS011;58032;49.820;6.274;2022-07-29T08:58:22;4.90;;;2.35;;
70505;SDS011;58032;49.820;6.274;2022-07-29T09:00:54;5.97;;;2.50;;
70505;SDS011;58032;49.820;6.274;2022-07-29T09:03:24;8.30;;;2.40;;
70505;SDS011;58032;49.820;6.274;2022-07-29T09:05:53;4.90;;;2.65;;
70505;SDS011;58032;49.820;6.274;2022-07-29T09:08:20;6.97;;;3.05;;
70505;SDS011;58032;49.820;6.274;2022-07-29T09:10:49;10.02;;;2.53;;
70505;SDS011;58032;49.820;6.274;2022-07-29T09:13:17;5.68;;;2.50;;
70505;SDS011;58032;49.820;6.274;2022-07-29T09:15:44;5.87;;;2.73;;
70505;SDS011;58032;49.820;6.274;2022-07-29T09:18:11;4.22;;;2.45;;
70505;SDS011;58032;49.820;6.274;2022-07-29T09:20:39;7.22;;;2.80;;
70505;SDS011;58032;49.820;6.274;2022-07-29T09:23:24;4.70;;;2.55;;
70505;SDS011;58032;49.820;6.274;2022-07-29T09:25:51;7.05;;;2.72;;
70505;SDS011;58032;49.820;6.274;2022-07-29T09:28:18;4.37;;;2.73;;
70505;SDS011;58032;49.820;6.274;2022-07-29T09:30:52;4.45;;;2.42;;
70505;SDS011;58032;49.820;6.274;2022-07-29T09:33:21;5.10;;;2.50;;
70505;SDS011;58032;49.820;6.274;2022-07-29T09:35:59;4.47;;;2.65;;
70505;SDS011;58032;49.820;6.274;2022-07-29T09:38:30;6.00;;;2.30;;
70505;SDS011;58032;49.820;6.274;2022-07-29T09:40:59;3.90;;;2.30;;
70505;SDS011;58032;49.820;6.274;2022-07-29T09:43:27;4.18;;;2.40;;
70505;SDS011;58032;49.820;6.274;2022-07-29T09:45:54;3.70;;;2.20;;
70505;SDS011;58032;49.820;6.274;2022-07-29T09:48:24;6.05;;;2.60;;
70505;SDS011;58032;49.820;6.274;2022-07-29T09:50:51;4.65;;;2.42;;
70505;SDS011;58032;49.820;6.274;2022-07-29T09:55:59;4.18;;;1.98;;
70505;SDS011;58032;49.820;6.274;2022-07-29T09:58:27;4.85;;;2.20;;
70505;SDS011;58032;49.820;6.274;2022-07-29T10:00:54;4.97;;;2.20;;
70505;SDS011;58032;49.820;6.274;2022-07-29T10:03:23;4.88;;;2.15;;
70505;SDS011;58032;49.820;6.274;2022-07-29T10:06:11;4.77;;;2.13;;
70505;SDS011;58032;49.820;6.274;2022-07-29T10:08:40;4.10;;;1.92;;
70505;SDS011;58032;49.820;6.274;2022-07-29T10:11:12;4.55;;;2.15;;
70505;SDS011;58032;49.820;6.274;2022-07-29T10:13:44;4.93;;;2.28;;
70505;SDS011;58032;49.820;6.274;2022-07-29T10:16:12;4.22;;;2.25;;
70505;SDS011;58032;49.820;6.274;2022-07-29T10:18:41;4.63;;;2.47;;
70505;SDS011;58032;49.820;6.274;2022-07-29T10:21:09;3.45;;;2.38;;
70505;SDS011;58032;49.820;6.274;2022-07-29T10:23:36;3.72;;;2.05;;
70505;SDS011;58032;49.820;6.274;2022-07-29T10:26:03;4.07;;;2.13;;
70505;SDS011;58032;49.820;6.274;2022-07-29T10:28:31;3.67;;;2.08;;
70505;SDS011;58032;49.820;6.274;2022-07-29T10:31:02;3.37;;;2.10;;
70505;SDS011;58032;49.820;6.274;2022-07-29T10:33:37;5.78;;;1.98;;
70505;SDS011;58032;49.820;6.274;2022-07-29T10:44:27;3.77;;;1.40;;
70505;SDS011;58032;49.820;6.274;2022-07-29T10:46:55;4.72;;;1.95;;
70505;SDS011;58032;49.820;6.274;2022-07-29T10:49:23;5.38;;;2.15;;
70505;SDS011;58032;49.820;6.274;2022-07-29T10:51:53;5.15;;;1.92;;
70505;SDS011;58032;49.820;6.274;2022-07-29T10:59:43;4.55;;;1.98;;
70505;SDS011;58032;49.820;6.274;2022-07-29T11:07:39;4.22;;;2.08;;
70505;SDS011;58032;49.820;6.274;2022-07-29T11:10:26;6.17;;;2.30;;
70505;SDS011;58032;49.820;6.274;2022-07-29T11:12:53;5.15;;;2.33;;
70505;SDS011;58032;49.820;6.274;2022-07-29T11:15:21;4.20;;;2.20;;
70505;SDS011;58032;49.820;6.274;2022-07-29T11:20:35;3.25;;;1.90;;
70505;SDS011;58032;49.820;6.274;2022-07-29T11:47:36;8.45;;;2.13;;
70505;SDS011;58032;49.820;6.274;2022-07-29T11:50:06;6.07;;;1.90;;
70505;SDS011;58032;49.820;6.274;2022-07-29T11:52:43;4.38;;;2.08;;
70505;SDS011;58032;49.820;6.274;2022-07-29T11:55:16;3.65;;;2.17;;
70505;SDS011;58032;49.820;6.274;2022-07-29T11:57:52;3.50;;;2.22;;
70505;SDS011;58032;49.820;6.274;2022-07-29T12:00:35;6.83;;;2.33;;
70505;SDS011;58032;49.820;6.274;2022-07-29T12:03:07;5.28;;;1.92;;
70505;SDS011;58032;49.820;6.274;2022-07-29T12:05:39;3.53;;;2.13;;
70505;SDS011;58032;49.820;6.274;2022-07-29T12:08:11;4.30;;;2.45;;
70505;SDS011;58032;49.820;6.274;2022-07-29T12:10:40;4.85;;;2.30;;
70505;SDS011;58032;49.820;6.274;2022-07-29T12:13:08;4.10;;;2.13;;
70505;SDS011;58032;49.820;6.274;2022-07-29T12:15:36;7.30;;;2.47;;
70505;SDS011;58032;49.820;6.274;2022-07-29T12:18:13;6.70;;;2.00;;
70505;SDS011;58032;49.820;6.274;2022-07-29T12:20:42;4.90;;;2.17;;
70505;SDS011;58032;49.820;6.274;2022-07-29T12:23:10;3.38;;;2.17;;
70505;SDS011;58032;49.820;6.274;2022-07-29T12:25:42;3.93;;;2.20;;
70505;SDS011;58032;49.820;6.274;2022-07-29T12:28:12;4.20;;;2.58;;
70505;SDS011;58032;49.820;6.274;2022-07-29T12:33:16;3.97;;;2.10;;
70505;SDS011;58032;49.820;6.274;2022-07-29T12:35:51;3.75;;;2.33;;
70505;SDS011;58032;49.820;6.274;2022-07-29T12:38:32;5.10;;;2.30;;
70505;SDS011;58032;49.820;6.274;2022-07-29T12:41:01;3.75;;;2.35;;
70505;SDS011;58032;49.820;6.274;2022-07-29T12:43:29;4.60;;;2.00;;
70505;SDS011;58032;49.820;6.274;2022-07-29T12:45:56;3.47;;;2.28;;
70505;SDS011;58032;49.820;6.274;2022-07-29T12:51:02;5.30;;;2.30;;
70505;SDS011;58032;49.820;6.274;2022-07-29T12:53:31;4.05;;;2.25;;
70505;SDS011;58032;49.820;6.274;2022-07-29T12:55:58;5.50;;;2.50;;
70505;SDS011;58032;49.820;6.274;2022-07-29T12:58:35;3.67;;;2.40;;
70505;SDS011;58032;49.820;6.274;2022-07-29T13:06:35;3.65;;;2.00;;
70505;SDS011;58032;49.820;6.274;2022-07-29T13:09:13;4.43;;;1.85;;
70505;SDS011;58032;49.820;6.274;2022-07-29T13:11:41;4.55;;;2.10;;
70505;SDS011;58032;49.820;6.274;2022-07-29T13:14:20;3.38;;;2.20;;
70505;SDS011;58032;49.820;6.274;2022-07-29T13:19:51;5.68;;;2.03;;
70505;SDS011;58032;49.820;6.274;2022-07-29T13:22:21;4.28;;;2.20;;
70505;SDS011;58032;49.820;6.274;2022-07-29T13:24:57;4.20;;;2.17;;
70505;SDS011;58032;49.820;6.274;2022-07-29T13:27:30;4.05;;;2.10;;
70505;SDS011;58032;49.820;6.274;2022-07-29T13:29:59;7.77;;;2.50;;
70505;SDS011;58032;49.820;6.274;2022-07-29T13:32:29;4.32;;;2.20;;
70505;SDS011;58032;49.820;6.274;2022-07-29T13:34:58;3.42;;;2.00;;
70505;SDS011;58032;49.820;6.274;2022-07-29T13:37:27;5.03;;;2.20;;
70505;SDS011;58032;49.820;6.274;2022-07-29T13:39:56;5.97;;;2.30;;
70505;SDS011;58032;49.820;6.274;2022-07-29T13:42:23;4.10;;;2.40;;
70505;SDS011;58032;49.820;6.274;2022-07-29T13:44:51;6.18;;;2.83;;
70505;SDS011;58032;49.820;6.274;2022-07-29T13:47:19;5.20;;;2.35;;
70505;SDS011;58032;49.820;6.274;2022-07-29T13:49:48;4.55;;;2.30;;
70505;SDS011;58032;49.820;6.274;2022-07-29T13:52:15;3.80;;;2.60;;
70505;SDS011;58032;49.820;6.274;2022-07-29T13:54:42;5.27;;;2.43;;
70505;SDS011;58032;49.820;6.274;2022-07-29T13:57:10;3.72;;;2.40;;
70505;SDS011;58032;49.820;6.274;2022-07-29T13:59:41;4.03;;;2.20;;
70505;SDS011;58032;49.820;6.274;2022-07-29T14:02:09;4.63;;;2.50;;
70505;SDS011;58032;49.820;6.274;2022-07-29T14:04:37;5.38;;;2.53;;
70505;SDS011;58032;49.820;6.274;2022-07-29T14:07:04;8.60;;;2.47;;
70505;SDS011;58032;49.820;6.274;2022-07-29T14:09:31;3.95;;;2.22;;
70505;SDS011;58032;49.820;6.274;2022-07-29T14:11:58;4.53;;;2.20;;
70505;SDS011;58032;49.820;6.274;2022-07-29T14:14:25;6.47;;;2.40;;
70505;SDS011;58032;49.820;6.274;2022-07-29T14:16:52;4.97;;;2.75;;
70505;SDS011;58032;49.820;6.274;2022-07-29T14:19:19;6.03;;;2.53;;
70505;SDS011;58032;49.820;6.274;2022-07-29T14:21:47;5.35;;;2.70;;
70505;SDS011;58032;49.820;6.274;2022-07-29T14:24:25;6.78;;;2.35;;
70505;SDS011;58032;49.820;6.274;2022-07-29T14:27:10;6.10;;;2.75;;
70505;SDS011;58032;49.820;6.274;2022-07-29T14:29:39;5.72;;;2.60;;
70505;SDS011;58032;49.820;6.274;2022-07-29T14:32:10;4.47;;;2.20;;
70505;SDS011;58032;49.820;6.274;2022-07-29T14:34:48;5.78;;;2.58;;
70505;SDS011;58032;49.820;6.274;2022-07-29T14:37:20;7.28;;;2.92;;
70505;SDS011;58032;49.820;6.274;2022-07-29T14:39:50;4.45;;;2.35;;
70505;SDS011;58032;49.820;6.274;2022-07-29T14:42:25;4.07;;;2.70;;
70505;SDS011;58032;49.820;6.274;2022-07-29T14:44:57;5.03;;;2.70;;
70505;SDS011;58032;49.820;6.274;2022-07-29T14:50:35;4.55;;;2.20;;
70505;SDS011;58032;49.820;6.274;2022-07-29T14:53:14;5.70;;;2.42;;
70505;SDS011;58032;49.820;6.274;2022-07-29T14:55:41;6.10;;;2.60;;
70505;SDS011;58032;49.820;6.274;2022-07-29T14:58:10;5.13;;;2.60;;
70505;SDS011;58032;49.820;6.274;2022-07-29T15:00:42;4.07;;;2.70;;
70505;SDS011;58032;49.820;6.274;2022-07-29T15:03:14;4.90;;;2.67;;
70505;SDS011;58032;49.820;6.274;2022-07-29T15:06:02;6.43;;;2.33;;
70505;SDS011;58032;49.820;6.274;2022-07-29T15:08:39;3.33;;;2.45;;
70505;SDS011;58032;49.820;6.274;2022-07-29T15:11:09;6.20;;;2.40;;
70505;SDS011;58032;49.820;6.274;2022-07-29T15:13:50;7.10;;;2.78;;
70505;SDS011;58032;49.820;6.274;2022-07-29T15:16:37;5.82;;;2.67;;
70505;SDS011;58032;49.820;6.274;2022-07-29T15:19:17;3.92;;;2.28;;
70505;SDS011;58032;49.820;6.274;2022-07-29T15:24:48;4.93;;;2.73;;
70505;SDS011;58032;49.820;6.274;2022-07-29T15:27:18;5.15;;;2.80;;
70505;SDS011;58032;49.820;6.274;2022-07-29T15:29:53;4.95;;;3.10;;
70505;SDS011;58032;49.820;6.274;2022-07-29T15:32:23;3.67;;;2.58;;
70505;SDS011;58032;49.820;6.274;2022-07-29T15:34:52;5.15;;;3.00;;
70505;SDS011;58032;49.820;6.274;2022-07-29T15:37:20;3.80;;;2.30;;
70505;SDS011;58032;49.820;6.274;2022-07-29T15:39:50;4.47;;;2.63;;
70505;SDS011;58032;49.820;6.274;2022-07-29T15:42:19;5.30;;;2.65;;
70505;SDS011;58032;49.820;6.274;2022-07-29T15:44:46;4.05;;;2.47;;
70505;SDS011;58032;49.820;6.274;2022-07-29T15:47:37;4.90;;;2.50;;
70505;SDS011;58032;49.820;6.274;2022-07-29T15:50:06;6.67;;;2.83;;
70505;SDS011;58032;49.820;6.274;2022-07-29T15:52:40;7.13;;;2.70;;
70505;SDS011;58032;49.820;6.274;2022-07-29T15:55:15;4.35;;;2.40;;
70505;SDS011;58032;49.820;6.274;2022-07-29T15:57:47;6.65;;;2.75;;
70505;SDS011;58032;49.820;6.274;2022-07-29T16:00:17;6.05;;;2.80;;
70505;SDS011;58032;49.820;6.274;2022-07-29T16:02:46;4.43;;;2.60;;
70505;SDS011;58032;49.820;6.274;2022-07-29T16:05:19;6.82;;;2.90;;
70505;SDS011;58032;49.820;6.274;2022-07-29T16:07:51;4.18;;;2.70;;
70505;SDS011;58032;49.820;6.274;2022-07-29T16:10:21;4.65;;;2.70;;
70505;SDS011;58032;49.820;6.274;2022-07-29T16:12:49;4.20;;;2.40;;
70505;SDS011;58032;49.820;6.274;2022-07-29T16:15:20;3.70;;;2.33;;
70505;SDS011;58032;49.820;6.274;2022-07-29T16:17:59;5.68;;;2.30;;
70505;SDS011;58032;49.820;6.274;2022-07-29T16:20:45;5.93;;;2.75;;
70505;SDS011;58032;49.820;6.274;2022-07-29T16:23:19;4.43;;;2.13;;
70505;SDS011;58032;49.820;6.274;2022-07-29T16:25:50;4.97;;;2.30;;
70505;SDS011;58032;49.820;6.274;2022-07-29T16:28:27;4.17;;;2.60;;